createdAt,value
2022-12-25T00:01:46.387Z,42.65
2022-12-25T00:04:18.816Z,42.10
2022-12-25T00:06:51.188Z,44.90
2022-12-25T00:09:23.722Z,43.90
2022-12-25T00:11:56.053Z,44.50
2022-12-25T00:14:28.524Z,44.90
2022-12-25T00:17:01.114Z,43.68
2022-12-25T00:19:34.254Z,46.60
2022-12-25T00:22:06.797Z,45.85
2022-12-25T00:24:39.890Z,43.98
2022-12-25T00:27:12.358Z,44.25
2022-12-25T00:29:45.838Z,45.25
2022-12-25T00:32:18.437Z,41.95
2022-12-25T00:34:50.868Z,46.15
2022-12-25T00:37:23.724Z,42.93
2022-12-25T00:39:56.140Z,42.95
2022-12-25T00:42:29.156Z,40.98
2022-12-25T00:45:01.677Z,40.95
2022-12-25T00:47:34.968Z,41.48
2022-12-25T00:50:08.767Z,40.63
2022-12-25T00:52:41.237Z,39.95
2022-12-25T00:55:14.075Z,36.30
2022-12-25T00:57:46.464Z,35.50
2022-12-25T01:00:19.908Z,35.00
2022-12-25T01:02:52.760Z,33.65
2022-12-25T01:05:25.294Z,34.13
2022-12-25T01:07:58.150Z,33.10
2022-12-25T01:10:31.149Z,32.10
2022-12-25T01:13:03.918Z,32.15
2022-12-25T01:15:38.280Z,30.90
2022-12-25T01:18:12.848Z,29.65
2022-12-25T01:20:44.789Z,29.15
2022-12-25T01:23:17.171Z,30.43
2022-12-25T01:25:50.504Z,31.55
2022-12-25T01:28:23.617Z,30.50
2022-12-25T01:30:55.903Z,29.98
2022-12-25T01:33:29.149Z,29.32
2022-12-25T01:36:01.571Z,29.02
2022-12-25T01:38:34.198Z,29.20
2022-12-25T01:41:06.740Z,28.70
2022-12-25T01:44:01.915Z,30.62
2022-12-25T01:46:35.093Z,29.07
2022-12-25T01:49:23.393Z,29.52
2022-12-25T01:52:18.854Z,28.35
2022-12-25T01:54:59.012Z,28.60
2022-12-25T01:57:35.287Z,27.87
2022-12-25T02:00:10.354Z,29.70
2022-12-25T02:02:43.245Z,27.22
2022-12-25T02:05:23.420Z,27.75
2022-12-25T02:07:56.502Z,27.40
2022-12-25T02:10:29.225Z,29.82
2022-12-25T02:13:02.480Z,28.07
2022-12-25T02:15:43.104Z,28.12
2022-12-25T02:18:36.914Z,26.50
2022-12-25T02:21:52.966Z,27.48
2022-12-25T02:27:27.391Z,27.48
2022-12-25T02:30:08.490Z,24.50
2022-12-25T02:32:56.458Z,26.62
2022-12-25T02:35:31.301Z,26.95
2022-12-25T02:38:11.658Z,27.60
2022-12-25T02:40:54.090Z,25.82
2022-12-25T02:43:57.076Z,25.88
2022-12-25T02:46:47.113Z,27.05
2022-12-25T02:49:40.261Z,26.52
2022-12-25T02:52:33.226Z,26.93
2022-12-25T02:55:33.245Z,25.82
2022-12-25T02:58:27.776Z,25.82
2022-12-25T03:01:22.503Z,27.02
2022-12-25T03:04:14.565Z,25.77
2022-12-25T03:07:07.161Z,25.17
2022-12-25T03:10:01.411Z,26.60
2022-12-25T03:12:53.057Z,25.17
2022-12-25T03:15:29.852Z,25.75
2022-12-25T03:18:05.385Z,26.12
2022-12-25T03:20:56.814Z,25.40
2022-12-25T03:23:51.499Z,23.40
2022-12-25T03:26:41.632Z,23.40
2022-12-25T03:29:18.780Z,23.65
2022-12-25T03:31:56.769Z,23.73
2022-12-25T03:35:00.449Z,23.40
2022-12-25T03:38:21.613Z,24.40
2022-12-25T03:41:36.655Z,20.72
2022-12-25T03:44:24.061Z,21.70
2022-12-25T03:47:31.459Z,21.05
2022-12-25T03:50:41.412Z,21.37
2022-12-25T03:53:54.596Z,20.88
2022-12-25T03:56:45.552Z,20.15
2022-12-25T03:59:40.977Z,20.45
2022-12-25T04:02:31.543Z,20.05
2022-12-25T04:05:22.253Z,17.85
2022-12-25T04:08:12.445Z,18.82
2022-12-25T04:11:02.632Z,20.08
2022-12-25T04:13:52.784Z,20.30
2022-12-25T04:16:42.943Z,20.48
2022-12-25T04:19:33.213Z,19.57
2022-12-25T04:22:23.400Z,20.57
2022-12-25T04:25:08.951Z,21.33
2022-12-25T04:27:59.517Z,26.70
2022-12-25T04:30:51.041Z,21.70
2022-12-25T04:33:41.324Z,20.15
2022-12-25T04:36:13.764Z,17.57
2022-12-25T04:38:46.344Z,18.10
2022-12-25T04:41:18.733Z,18.60
2022-12-25T04:43:51.151Z,16.65
2022-12-25T04:46:24.356Z,17.02
2022-12-25T04:48:56.942Z,16.97
2022-12-25T04:51:29.354Z,17.67
2022-12-25T04:54:01.797Z,15.95
2022-12-25T04:56:40.081Z,14.90
2022-12-25T04:59:09.502Z,16.85
2022-12-25T05:01:42.482Z,15.23
2022-12-25T05:04:15.160Z,15.45
2022-12-25T05:06:47.498Z,34.60
2022-12-25T05:09:20.090Z,17.32
2022-12-25T05:11:52.774Z,15.70
2022-12-25T05:14:25.632Z,15.70
2022-12-25T05:16:58.223Z,15.25
2022-12-25T05:19:31.902Z,15.15
2022-12-25T05:22:04.442Z,14.28
2022-12-25T05:24:37.075Z,15.43
2022-12-25T05:27:09.411Z,14.60
2022-12-25T05:29:41.953Z,14.40
2022-12-25T05:32:15.217Z,13.22
2022-12-25T05:34:47.681Z,12.73
2022-12-25T05:37:20.567Z,33.88
2022-12-25T05:39:52.889Z,17.73
2022-12-25T05:42:25.266Z,14.43
2022-12-25T05:44:57.841Z,14.83
2022-12-25T05:47:30.240Z,13.62
2022-12-25T05:50:03.461Z,13.03
2022-12-25T05:52:36.280Z,13.25
2022-12-25T05:55:09.477Z,13.13
2022-12-25T05:57:41.777Z,12.58
2022-12-25T06:00:15.176Z,12.05
2022-12-25T06:02:48.246Z,12.55
2022-12-25T06:05:20.996Z,11.97
2022-12-25T06:07:54.672Z,13.28
2022-12-25T06:10:27.514Z,12.15
2022-12-25T06:13:00.978Z,11.80
2022-12-25T06:15:34.816Z,11.88
2022-12-25T06:18:07.989Z,14.93
2022-12-25T06:20:42.344Z,14.80
2022-12-25T06:23:14.776Z,15.65
2022-12-25T06:25:47.328Z,13.40
2022-12-25T06:28:19.851Z,11.95
2022-12-25T06:30:52.461Z,11.30
2022-12-25T06:33:25.140Z,11.53
2022-12-25T06:35:57.559Z,11.28
2022-12-25T06:38:31.593Z,17.23
2022-12-25T06:41:19.916Z,12.50
2022-12-25T06:43:54.128Z,9.48
2022-12-25T06:46:29.851Z,10.78
2022-12-25T06:49:02.499Z,10.40
2022-12-25T06:51:35.230Z,10.05
2022-12-25T06:54:09.641Z,10.35
2022-12-25T06:56:42.267Z,9.18
2022-12-25T06:59:15.111Z,9.78
2022-12-25T07:01:53.957Z,8.50
2022-12-25T07:04:40.384Z,9.50
2022-12-25T07:07:13.547Z,11.63
2022-12-25T07:09:46.119Z,10.40
2022-12-25T07:12:23.829Z,8.95
2022-12-25T07:14:57.068Z,9.18
2022-12-25T07:17:29.522Z,10.05
2022-12-25T07:20:01.926Z,10.25
2022-12-25T07:22:34.686Z,9.98
2022-12-25T07:25:08.157Z,9.15
2022-12-25T07:27:41.410Z,8.70
2022-12-25T07:30:14.953Z,8.23
2022-12-25T07:32:50.268Z,8.58
2022-12-25T07:35:22.266Z,8.93
2022-12-25T07:37:54.880Z,9.10
2022-12-25T07:40:27.466Z,8.55
2022-12-25T07:43:00.162Z,9.43
2022-12-25T07:45:34.180Z,9.03
2022-12-25T07:48:10.631Z,9.23
2022-12-25T07:50:41.204Z,8.68
2022-12-25T07:53:13.698Z,8.80
2022-12-25T07:55:46.100Z,8.75
2022-12-25T07:58:23.128Z,8.35
2022-12-25T08:00:52.866Z,9.30
2022-12-25T08:03:25.670Z,8.90
2022-12-25T08:06:03.367Z,8.90
2022-12-25T08:08:38.397Z,9.35
2022-12-25T08:11:11.214Z,8.08
2022-12-25T08:13:43.608Z,8.20
2022-12-25T08:16:16.492Z,7.37
2022-12-25T08:18:49.141Z,7.75
2022-12-25T08:21:21.612Z,8.05
2022-12-25T08:23:54.255Z,8.48
2022-12-25T08:26:26.600Z,8.70
2022-12-25T08:28:59.185Z,8.43
2022-12-25T08:31:34.035Z,8.40
2022-12-25T08:34:07.224Z,8.88
2022-12-25T08:36:39.811Z,8.70
2022-12-25T08:39:12.322Z,8.78
2022-12-25T08:41:44.762Z,9.23
2022-12-25T08:44:17.292Z,7.37
2022-12-25T08:46:49.606Z,7.87
2022-12-25T08:49:23.442Z,7.78
2022-12-25T08:51:56.181Z,8.88
2022-12-25T08:54:28.668Z,7.95
2022-12-25T08:57:03.014Z,8.15
2022-12-25T08:59:35.476Z,7.80
2022-12-25T09:02:08.232Z,7.60
2022-12-25T09:04:41.711Z,52.07
2022-12-25T09:07:14.324Z,15.88
2022-12-25T09:09:47.133Z,9.48
2022-12-25T09:12:19.747Z,7.55
2022-12-25T09:14:54.059Z,7.33
2022-12-25T09:17:26.456Z,6.90
2022-12-25T09:19:58.953Z,7.15
2022-12-25T09:22:31.834Z,6.70
2022-12-25T09:25:04.322Z,6.67
2022-12-25T09:27:37.480Z,6.83
2022-12-25T09:30:11.178Z,7.05
2022-12-25T09:32:43.673Z,6.58
2022-12-25T09:35:17.770Z,6.58
2022-12-25T09:37:50.077Z,7.03
2022-12-25T09:40:23.222Z,6.60
2022-12-25T09:42:55.719Z,8.03
2022-12-25T09:45:37.463Z,14.63
2022-12-25T09:48:13.481Z,7.75
2022-12-25T09:51:11.274Z,7.67
2022-12-25T09:53:48.731Z,7.85
2022-12-25T09:56:26.352Z,8.20
2022-12-25T09:58:58.809Z,7.30
2022-12-25T10:01:36.275Z,7.45
2022-12-25T10:04:25.542Z,7.65
2022-12-25T10:07:11.437Z,6.83
2022-12-25T10:10:10.033Z,6.28
2022-12-25T10:13:07.866Z,7.08
2022-12-25T10:15:58.476Z,6.45
2022-12-25T10:18:55.662Z,6.80
2022-12-25T10:21:28.306Z,6.70
2022-12-25T10:24:14.025Z,6.83
2022-12-25T10:26:46.990Z,6.30
2022-12-25T10:29:20.618Z,6.47
2022-12-25T10:31:56.860Z,7.08
2022-12-25T10:34:29.300Z,7.30
2022-12-25T10:37:02.509Z,7.30
2022-12-25T10:39:36.077Z,7.15
2022-12-25T10:42:40.618Z,7.53
2022-12-25T10:45:13.085Z,6.33
2022-12-25T10:47:45.814Z,6.58
2022-12-25T10:50:24.733Z,7.60
2022-12-25T10:53:05.856Z,7.03
2022-12-25T10:55:38.870Z,6.97
2022-12-25T10:58:16.090Z,6.45
2022-12-25T11:01:02.433Z,6.67
2022-12-25T11:03:40.376Z,6.30
2022-12-25T11:06:27.721Z,7.12
2022-12-25T11:09:01.641Z,9.18
2022-12-25T11:11:34.146Z,8.60
2022-12-25T11:14:06.455Z,7.60
2022-12-25T11:16:40.427Z,8.63
2022-12-25T11:19:26.950Z,8.25
2022-12-25T11:22:01.356Z,8.98
2022-12-25T11:24:35.197Z,9.00
2022-12-25T11:27:07.922Z,9.30
2022-12-25T11:29:53.946Z,8.50
2022-12-25T11:32:51.391Z,8.83
2022-12-25T11:35:26.846Z,8.58
2022-12-25T11:37:59.159Z,9.00
2022-12-25T11:40:50.335Z,8.35
2022-12-25T11:43:43.359Z,8.25
2022-12-25T11:46:23.223Z,7.75
2022-12-25T11:48:59.206Z,8.80
2022-12-25T11:51:38.127Z,7.78
2022-12-25T11:54:27.286Z,9.98
2022-12-25T11:57:01.242Z,10.20
2022-12-25T11:59:53.553Z,8.65
2022-12-25T12:02:47.747Z,8.50
2022-12-25T12:05:33.808Z,8.35
2022-12-25T12:08:07.324Z,9.93
2022-12-25T12:10:53.521Z,8.33
2022-12-25T12:14:04.203Z,9.60
2022-12-25T12:16:37.028Z,8.50
2022-12-25T12:19:29.658Z,8.28
2022-12-25T12:22:03.737Z,9.33
2022-12-25T12:24:42.953Z,9.63
2022-12-25T12:27:25.291Z,8.48
2022-12-25T12:29:59.487Z,8.93
2022-12-25T12:32:48.003Z,8.38
2022-12-25T12:35:23.722Z,8.20
2022-12-25T12:38:02.614Z,9.15
2022-12-25T12:40:38.671Z,9.75
2022-12-25T12:43:30.976Z,9.30
2022-12-25T12:46:31.263Z,10.08
2022-12-25T12:49:25.946Z,11.85
2022-12-25T12:52:18.015Z,14.50
2022-12-25T12:55:06.494Z,11.00
2022-12-25T12:57:41.739Z,10.40
2022-12-25T13:00:19.983Z,9.15
2022-12-25T13:03:09.877Z,9.75
2022-12-25T13:05:58.449Z,9.53
2022-12-25T13:08:50.825Z,9.15
2022-12-25T13:11:32.507Z,8.50
2022-12-25T13:14:05.934Z,9.53
2022-12-25T13:16:42.954Z,8.58
2022-12-25T13:19:27.519Z,10.40
2022-12-25T13:22:02.497Z,8.70
2022-12-25T13:24:37.915Z,10.98
2022-12-25T13:27:29.560Z,8.48
2022-12-25T13:30:16.186Z,9.50
2022-12-25T13:32:49.462Z,9.13
2022-12-25T13:35:22.405Z,10.03
2022-12-25T13:37:54.920Z,9.80
2022-12-25T13:40:28.983Z,9.28
2022-12-25T13:43:02.238Z,10.10
2022-12-25T13:45:37.741Z,11.22
2022-12-25T13:48:20.983Z,9.68
2022-12-25T13:51:01.819Z,9.88
2022-12-25T13:53:34.442Z,7.90
2022-12-25T13:56:07.131Z,8.85
2022-12-25T13:58:40.571Z,8.73
2022-12-25T14:01:13.029Z,8.50
2022-12-25T14:03:49.334Z,8.63
2022-12-25T14:06:27.865Z,8.53
2022-12-25T14:09:00.490Z,8.43
2022-12-25T14:11:32.958Z,8.43
2022-12-25T14:14:09.325Z,9.20
2022-12-25T14:16:44.286Z,7.95
2022-12-25T14:19:31.464Z,8.38
2022-12-25T14:22:14.306Z,8.08
2022-12-25T14:24:46.815Z,8.63
2022-12-25T14:27:23.617Z,8.10
2022-12-25T14:29:59.939Z,8.43
2022-12-25T14:32:33.072Z,8.03
2022-12-25T14:35:06.269Z,8.28
2022-12-25T14:37:39.468Z,8.28
2022-12-25T14:40:28.377Z,8.25
2022-12-25T14:43:03.414Z,8.45
2022-12-25T14:45:39.743Z,8.15
2022-12-25T14:48:25.541Z,7.28
2022-12-25T14:51:03.083Z,9.08
2022-12-25T14:53:49.709Z,8.23
2022-12-25T14:56:23.168Z,8.48
2022-12-25T14:58:58.669Z,9.63
2022-12-25T15:01:36.603Z,9.63
2022-12-25T15:04:15.207Z,9.90
2022-12-25T15:07:00.032Z,9.88
2022-12-25T15:09:32.411Z,29.15
2022-12-25T15:12:05.529Z,22.00
2022-12-25T15:14:39.652Z,14.10
2022-12-25T15:19:46.051Z,11.75
2022-12-25T15:22:20.214Z,9.90
2022-12-25T15:24:58.757Z,8.65
2022-12-25T15:27:27.023Z,8.90
2022-12-25T15:30:09.822Z,9.40
2022-12-25T15:32:33.845Z,9.38
2022-12-25T15:35:07.222Z,8.08
2022-12-25T15:37:40.151Z,7.87
2022-12-25T15:40:15.216Z,8.55
2022-12-25T15:42:49.179Z,8.65
2022-12-25T15:45:25.665Z,8.00
2022-12-25T15:47:58.922Z,7.67
2022-12-25T15:50:32.894Z,8.28
2022-12-25T15:53:05.598Z,7.97
2022-12-25T15:55:38.288Z,7.53
2022-12-25T15:58:15.312Z,7.62
2022-12-25T16:00:48.174Z,7.17
2022-12-25T16:03:20.679Z,8.15
2022-12-25T16:05:54.854Z,7.65
2022-12-25T16:08:27.325Z,7.70
2022-12-25T16:11:00.118Z,8.48
2022-12-25T16:13:33.492Z,8.50
2022-12-25T16:16:07.213Z,8.05
2022-12-25T16:18:46.733Z,8.48
2022-12-25T16:21:18.686Z,8.15
2022-12-25T16:23:51.091Z,8.20
2022-12-25T16:26:23.630Z,7.85
2022-12-25T16:28:55.988Z,8.78
2022-12-25T16:31:28.439Z,7.97
2022-12-25T16:34:01.726Z,8.03
2022-12-25T16:36:34.241Z,7.92
2022-12-25T16:39:06.806Z,8.48
2022-12-25T16:41:39.440Z,8.05
2022-12-25T16:44:12.072Z,13.08
2022-12-25T16:46:45.257Z,8.43
2022-12-25T16:49:18.015Z,7.70
2022-12-25T16:51:50.477Z,6.85
2022-12-25T16:54:23.001Z,7.12
2022-12-25T16:56:56.568Z,8.10
2022-12-25T16:59:31.416Z,6.72
2022-12-25T17:02:03.893Z,8.28
2022-12-25T17:04:36.635Z,7.40
2022-12-25T17:07:09.532Z,7.60
2022-12-25T17:09:44.618Z,7.25
2022-12-25T17:14:48.796Z,8.18
2022-12-25T17:17:21.104Z,8.28
2022-12-25T17:19:53.592Z,8.15
2022-12-25T17:22:26.179Z,9.60
2022-12-25T17:24:58.704Z,9.88
2022-12-25T17:27:31.318Z,9.03
2022-12-25T17:30:03.935Z,10.35
2022-12-25T17:32:36.541Z,10.08
2022-12-25T17:35:10.024Z,10.32
2022-12-25T17:37:42.433Z,10.60
2022-12-25T17:40:15.837Z,10.18
2022-12-25T17:42:48.568Z,21.07
2022-12-25T17:45:21.153Z,35.38
2022-12-25T17:47:57.707Z,13.28
2022-12-25T17:50:34.567Z,12.37
2022-12-25T17:53:05.521Z,11.15
2022-12-25T17:55:41.668Z,10.55
2022-12-25T17:58:14.184Z,10.35
2022-12-25T18:00:47.010Z,10.85
2022-12-25T18:03:19.722Z,9.83
2022-12-25T18:05:52.426Z,10.90
2022-12-25T18:08:25.425Z,9.68
2022-12-25T18:10:59.891Z,10.45
2022-12-25T18:13:32.724Z,11.30
2022-12-25T18:16:07.137Z,9.48
2022-12-25T18:18:39.841Z,9.35
2022-12-25T18:21:13.054Z,9.00
2022-12-25T18:23:46.521Z,9.85
2022-12-25T18:26:19.456Z,10.10
2022-12-25T18:28:52.443Z,9.30
2022-12-25T18:31:26.986Z,10.43
2022-12-25T18:34:00.049Z,10.05
2022-12-25T18:36:33.562Z,8.98
2022-12-25T18:39:06.087Z,10.48
2022-12-25T18:41:40.862Z,9.10
2022-12-25T18:44:14.584Z,30.62
2022-12-25T18:46:47.716Z,17.30
2022-12-25T18:49:21.002Z,12.05
2022-12-25T18:51:54.121Z,11.30
2022-12-25T18:54:28.140Z,10.18
2022-12-25T18:57:05.435Z,25.20
2022-12-25T18:59:34.966Z,19.45
2022-12-25T19:02:07.574Z,13.10
2022-12-25T19:04:40.103Z,10.90
2022-12-25T19:07:12.880Z,10.38
2022-12-25T19:09:45.333Z,10.05
2022-12-25T19:12:18.027Z,9.50
2022-12-25T19:14:50.732Z,10.55
2022-12-25T19:17:27.994Z,8.83
2022-12-25T19:19:59.150Z,9.75
2022-12-25T19:22:33.233Z,10.38
2022-12-25T19:25:07.463Z,10.23
2022-12-25T19:27:40.110Z,10.60
2022-12-25T19:30:13.689Z,9.43
2022-12-25T19:32:47.510Z,9.73
2022-12-25T19:35:19.790Z,9.38
2022-12-25T19:37:53.188Z,10.15
2022-12-25T19:40:26.534Z,11.57
2022-12-25T19:42:59.061Z,20.13
2022-12-25T19:45:31.527Z,23.45
2022-12-25T19:48:04.874Z,18.87
2022-12-25T19:50:37.751Z,13.72
2022-12-25T19:53:10.475Z,11.22
2022-12-25T19:55:43.323Z,10.53
2022-12-25T19:58:16.053Z,10.82
2022-12-25T20:01:08.103Z,9.90
2022-12-25T20:03:46.179Z,10.72
2022-12-25T20:06:21.452Z,10.85
2022-12-25T20:08:56.949Z,9.70
2022-12-25T20:11:32.000Z,10.53
2022-12-25T20:14:06.689Z,10.75
2022-12-25T20:16:39.612Z,11.12
2022-12-25T20:19:15.123Z,10.15
2022-12-25T20:21:47.453Z,10.43
2022-12-25T20:24:20.826Z,10.70
2022-12-25T20:26:58.811Z,11.43
2022-12-25T20:29:27.690Z,10.93
2022-12-25T20:32:00.554Z,10.03
2022-12-25T20:34:33.491Z,11.83
2022-12-25T20:37:06.132Z,12.40
2022-12-25T20:39:40.468Z,10.43
2022-12-25T20:42:14.224Z,10.78
2022-12-25T20:44:46.782Z,9.85
2022-12-25T20:47:19.271Z,11.78
2022-12-25T20:49:51.702Z,11.00
2022-12-25T20:52:24.173Z,10.70
2022-12-25T20:54:57.049Z,10.60
2022-12-25T20:57:29.885Z,11.70
2022-12-25T21:00:02.418Z,11.18
2022-12-25T21:02:38.160Z,10.60
2022-12-25T21:05:14.791Z,9.73
2022-12-25T21:07:47.788Z,9.80
2022-12-25T21:10:20.315Z,9.43
2022-12-25T21:12:53.466Z,9.98
2022-12-25T21:15:26.069Z,15.20
2022-12-25T21:17:58.418Z,14.55
2022-12-25T21:20:31.038Z,10.13
2022-12-25T21:23:03.564Z,9.48
2022-12-25T21:25:36.985Z,8.78
2022-12-25T21:28:09.325Z,8.73
2022-12-25T21:30:41.902Z,9.15
2022-12-25T21:33:33.135Z,9.63
2022-12-25T21:36:10.167Z,10.32
2022-12-25T21:38:42.539Z,9.55
2022-12-25T21:41:17.631Z,9.55
2022-12-25T21:43:50.129Z,9.25
2022-12-25T21:46:23.577Z,10.00
2022-12-25T21:48:56.050Z,9.43
2022-12-25T21:51:51.016Z,8.90
2022-12-25T21:56:55.476Z,9.98
2022-12-25T21:59:27.878Z,10.80
2022-12-25T22:02:00.830Z,9.68
2022-12-25T22:04:33.517Z,9.25
2022-12-25T22:07:18.292Z,10.05
2022-12-25T22:09:52.258Z,9.98
2022-12-25T22:12:42.712Z,9.95
2022-12-25T22:15:15.471Z,10.40
2022-12-25T22:18:06.065Z,10.03
2022-12-25T22:20:40.098Z,11.22
2022-12-25T22:23:14.535Z,10.85
2022-12-25T22:25:47.210Z,10.50
2022-12-25T22:28:19.621Z,10.43
2022-12-25T22:30:52.982Z,10.10
2022-12-25T22:33:27.229Z,10.00
2022-12-25T22:36:18.431Z,9.70
2022-12-25T22:38:50.912Z,9.70
2022-12-25T22:41:27.017Z,9.83
2022-12-25T22:49:04.622Z,9.90
2022-12-25T22:51:37.018Z,9.23
2022-12-25T22:54:09.738Z,9.75
2022-12-25T22:56:43.237Z,10.38
2022-12-25T22:59:36.648Z,10.63
2022-12-25T23:02:11.209Z,9.85
2022-12-25T23:04:43.695Z,9.98
2022-12-25T23:07:16.012Z,10.78
2022-12-25T23:09:48.530Z,10.58
2022-12-25T23:12:38.807Z,9.95
2022-12-25T23:15:11.775Z,10.43
2022-12-25T23:18:01.893Z,10.15
2022-12-25T23:20:52.765Z,10.63
2022-12-25T23:23:43.233Z,10.63
2022-12-25T23:26:17.061Z,9.53
2022-12-25T23:29:07.054Z,9.20
2022-12-25T23:31:41.011Z,8.88
2022-12-25T23:36:45.609Z,9.25
2022-12-25T23:39:18.066Z,10.38
2022-12-25T23:41:51.802Z,9.13
2022-12-25T23:44:24.663Z,10.82
2022-12-25T23:46:58.392Z,10.43
2022-12-25T23:49:30.784Z,10.50
2022-12-25T23:52:03.243Z,11.03
2022-12-25T23:54:36.397Z,11.18
2022-12-25T23:57:08.940Z,10.25
2022-12-25T23:59:41.540Z,8.58
